Time;durP1;ratioP1;P1;durP2;ratioP2;P2;SDS_P1;SDS_P2;PMS_P1;PMS_P2;Temp;Humidity;BMP_temperature;BMP_pressure;BME280_temperature;BME280_humidity;BME280_pressure;Samples;Min_cycle;Max_cycle;Signal;HPM_P1;HPM_P2
2023/05/27 00:01:50;;;;;;;4.90;4.40;;;;;;;15.86;56.55;155435.50;5009942;28;20959;-86
2023/05/27 00:04:16;;;;;;;6.53;3.83;;;;;;;15.81;56.80;155423.81;5009778;28;20448;-88
2023/05/27 00:06:43;;;;;;;5.63;4.20;;;;;;;15.77;57.02;155413.47;5007061;28;20456;-87
2023/05/27 00:09:09;;;;;;;9.13;6.03;;;;;;;15.76;56.82;155410.84;5006512;28;20464;-87
2023/05/27 00:11:36;;;;;;;8.10;4.20;;;;;;;15.73;57.27;155401.72;4999598;28;20482;-87
2023/05/27 00:14:03;;;;;;;4.90;4.00;;;;;;;15.69;57.28;155392.66;4998168;28;20452;-87
2023/05/27 00:16:31;;;;;;;5.30;3.60;;;;;;;15.67;57.35;155387.41;5006890;28;20488;-87
2023/05/27 00:19:01;;;;;;;12.07;4.20;;;;;;;15.61;57.26;155371.84;4989567;28;20472;-87
2023/05/27 00:21:28;;;;;;;6.73;4.17;;;;;;;15.61;57.42;155371.84;5011104;28;20487;-87
2023/05/27 00:23:54;;;;;;;5.17;3.60;;;;;;;15.60;57.42;155367.91;5008095;28;20830;-87
2023/05/27 00:26:21;;;;;;;5.57;4.37;;;;;;;15.61;57.60;155371.84;5015796;28;20463;-87
2023/05/27 00:28:51;;;;;;;6.53;4.20;;;;;;;15.58;58.09;155364.03;4989977;28;20441;-87
2023/05/27 00:31:18;;;;;;;6.97;4.10;;;;;;;15.54;58.21;155353.63;4993345;28;20479;-86
2023/05/27 00:33:46;;;;;;;5.87;3.57;;;;;;;15.60;57.98;155369.22;5011820;28;20940;-87
2023/05/27 00:36:15;;;;;;;6.67;4.10;;;;;;;15.49;58.19;155340.63;5014056;28;20451;-87
2023/05/27 00:38:42;;;;;;;7.03;3.80;;;;;;;15.48;58.42;155338.06;4981689;28;20530;-87
2023/05/27 00:41:12;;;;;;;5.70;4.03;;;;;;;15.41;58.49;155318.53;5006541;28;20466;-87
2023/05/27 00:43:39;;;;;;;6.43;3.90;;;;;;;15.39;58.97;155313.28;5018786;28;20535;-87
2023/05/27 00:46:06;;;;;;;7.23;4.30;;;;;;;15.32;59.22;155296.41;5014793;28;21011;-87
2023/05/27 00:48:34;;;;;;;7.00;3.47;;;;;;;15.27;59.34;155282.13;5011627;28;20864;-87
2023/05/27 00:51:02;;;;;;;8.63;4.93;;;;;;;15.17;59.55;155258.72;5008524;28;20435;-87
2023/05/27 00:53:36;;;;;;;5.57;3.30;;;;;;;15.12;60.22;155244.41;5008037;28;20438;-87
2023/05/27 00:56:03;;;;;;;5.67;3.83;;;;;;;15.11;60.30;155241.84;5015403;28;20458;-87
2023/05/27 00:58:31;;;;;;;7.03;4.43;;;;;;;15.09;60.81;155236.66;4983270;28;20477;-87
2023/05/27 01:00:59;;;;;;;6.50;4.50;;;;;;;15.03;60.74;155221.03;5002371;28;20555;-87
2023/05/27 01:03:28;;;;;;;8.83;3.97;;;;;;;14.95;61.27;155201.56;5031394;28;20446;-87
2023/05/27 01:06:00;;;;;;;6.97;3.97;;;;;;;14.92;61.46;155192.47;5014153;28;20564;-87
2023/05/27 01:08:34;;;;;;;4.37;3.50;;;;;;;14.90;61.65;155188.56;5012274;28;20505;-87
2023/05/27 01:11:05;;;;;;;5.83;4.70;;;;;;;14.87;61.71;155179.47;4978790;28;20462;-87
2023/05/27 01:13:38;;;;;;;5.03;3.70;;;;;;;14.84;61.88;155171.66;5011390;28;20445;-86
2023/05/27 01:16:10;;;;;;;8.83;4.90;;;;;;;14.84;62.12;155172.97;5005047;28;20511;-86
2023/05/27 01:18:40;;;;;;;7.40;3.73;;;;;;;14.81;62.24;155163.88;4981636;28;20450;-87
2023/05/27 01:21:12;;;;;;;6.33;3.63;;;;;;;14.77;62.52;155154.81;5014669;28;20989;-87
2023/05/27 01:23:42;;;;;;;6.90;4.13;;;;;;;14.75;62.46;155148.25;5000580;28;21305;-87
2023/05/27 01:26:10;;;;;;;6.63;3.90;;;;;;;14.77;62.31;155153.50;5017105;28;20462;-87
2023/05/27 01:28:37;;;;;;;6.57;3.30;;;;;;;14.70;62.66;155136.59;4988331;28;20463;-87
2023/05/27 01:31:12;;;;;;;5.23;3.87;;;;;;;14.71;62.76;155137.91;5000066;28;20442;-86
2023/05/27 01:33:41;;;;;;;5.90;3.70;;;;;;;14.72;62.50;155140.50;5011337;28;20458;-87
2023/05/27 01:36:17;;;;;;;5.27;3.67;;;;;;;14.75;62.24;155149.56;5015409;28;20549;-87
2023/05/27 01:38:47;;;;;;;5.47;3.60;;;;;;;14.70;62.66;155135.28;4976809;28;20463;-86
2023/05/27 01:41:15;;;;;;;8.27;3.53;;;;;;;14.69;62.72;155132.72;5006546;28;20867;-87
2023/05/27 01:43:42;;;;;;;6.67;3.53;;;;;;;14.70;63.08;155135.28;5011514;28;20440;-87
2023/05/27 01:46:09;;;;;;;9.10;3.90;;;;;;;14.68;63.00;155130.09;5027729;28;20473;-86
2023/05/27 01:48:37;;;;;;;4.80;3.23;;;;;;;14.62;63.19;155115.81;4993627;28;20459;-86
2023/05/27 01:51:04;;;;;;;7.37;3.77;;;;;;;14.65;62.92;155123.59;4998848;28;20424;-86
2023/05/27 01:53:31;;;;;;;6.43;4.20;;;;;;;14.62;63.23;155115.81;5007186;28;20486;-86
2023/05/27 01:55:59;;;;;;;9.03;4.10;;;;;;;14.60;63.68;155110.63;4998051;28;20457;-87
2023/05/27 01:58:27;;;;;;;7.70;4.30;;;;;;;14.54;63.82;155095.03;4993997;28;20550;-86
2023/05/27 02:00:53;;;;;;;9.40;4.60;;;;;;;14.47;63.91;155078.16;4995369;28;20476;-87
2023/05/27 02:03:22;;;;;;;9.10;3.87;;;;;;;14.40;64.17;155059.94;4994494;28;20817;-87
2023/05/27 02:05:49;;;;;;;7.93;3.60;;;;;;;14.38;64.30;155054.75;5010754;28;20444;-87
2023/05/27 02:08:16;;;;;;;9.00;4.23;;;;;;;14.37;64.48;155052.19;4993151;28;20448;-86
2023/05/27 02:10:42;;;;;;;9.27;4.27;;;;;;;14.39;64.56;155057.38;4992934;28;20480;-87
2023/05/27 02:13:11;;;;;;;7.60;3.70;;;;;;;14.34;64.72;155044.41;5014232;28;20480;-87
2023/05/27 02:15:38;;;;;;;6.40;4.30;;;;;;;14.26;65.26;155023.56;4994195;28;20476;-87
2023/05/27 02:18:05;;;;;;;5.40;3.90;;;;;;;14.26;65.25;155023.56;4978647;28;20547;-86
2023/05/27 02:20:31;;;;;;;4.90;3.30;;;;;;;14.26;65.18;155023.56;5024111;28;20458;-87
2023/05/27 02:22:59;;;;;;;9.10;4.10;;;;;;;14.21;65.49;155010.59;5006612;28;20515;-86
2023/05/27 02:25:25;;;;;;;8.87;3.87;;;;;;;14.19;65.64;155004.09;5029954;28;20532;-86
2023/05/27 02:27:52;;;;;;;8.30;4.30;;;;;;;14.11;65.82;154983.31;5010409;28;20539;-87
2023/05/27 02:30:20;;;;;;;6.63;3.87;;;;;;;14.10;66.23;154980.72;5007192;28;20925;-87
2023/05/27 02:32:46;;;;;;;9.70;3.67;;;;;;;14.07;66.22;154974.22;5000068;28;20477;-86
2023/05/27 02:35:14;;;;;;;9.17;4.40;;;;;;;14.08;66.16;154976.84;4986952;28;20972;-87
2023/05/27 02:37:41;;;;;;;6.10;3.60;;;;;;;14.06;66.31;154971.59;4994318;28;20545;-86
2023/05/27 02:40:09;;;;;;;6.53;3.97;;;;;;;14.07;66.10;154972.91;5010893;28;20831;-87
2023/05/27 02:42:36;;;;;;;7.87;5.30;;;;;;;14.10;65.91;154982.03;4997789;28;20563;-87
2023/05/27 02:45:02;;;;;;;6.90;3.77;;;;;;;14.11;66.12;154984.59;4983679;28;20853;-86
2023/05/27 02:47:30;;;;;;;7.33;3.83;;;;;;;14.06;66.40;154970.34;5003488;28;20951;-86
2023/05/27 02:49:57;;;;;;;6.27;4.10;;;;;;;14.00;66.56;154957.31;5012546;28;20464;-87
2023/05/27 02:52:24;;;;;;;6.03;3.90;;;;;;;13.95;66.82;154944.34;4996356;28;20513;-86
2023/05/27 02:54:51;;;;;;;7.10;3.90;;;;;;;13.93;66.68;154937.84;4993244;28;20452;-87
2023/05/27 02:57:18;;;;;;;7.33;3.80;;;;;;;13.94;66.72;154941.78;4989679;28;20469;-87
2023/05/27 02:59:45;;;;;;;12.37;4.40;;;;;;;13.89;67.17;154927.50;4975893;28;20552;-87
2023/05/27 03:02:11;;;;;;;8.87;3.60;;;;;;;13.81;67.80;154906.72;5021703;28;20458;-87
2023/05/27 03:04:40;;;;;;;6.87;3.70;;;;;;;13.78;67.93;154898.91;5003875;28;21019;-87
2023/05/27 03:07:06;;;;;;;8.63;4.50;;;;;;;13.75;68.03;154892.44;5019758;28;20569;-87
2023/05/27 03:09:34;;;;;;;6.70;3.70;;;;;;;13.73;68.46;154885.94;5011128;28;21000;-86
2023/05/27 03:12:01;;;;;;;7.80;4.17;;;;;;;13.72;68.39;154884.63;4995338;28;20543;-86
2023/05/27 03:14:27;;;;;;;8.00;3.90;;;;;;;13.68;68.54;154872.97;5006335;28;20867;-87
2023/05/27 03:16:54;;;;;;;9.20;4.13;;;;;;;13.66;68.56;154867.78;4993714;28;20454;-86
2023/05/27 03:19:23;;;;;;;6.77;4.40;;;;;;;13.70;68.57;154878.16;5024456;28;20442;-86
2023/05/27 03:22:10;;;;;;;6.20;3.87;;;;;;;13.68;68.56;154872.97;4995862;28;21030;-86
2023/05/27 03:24:36;;;;;;;9.07;4.03;;;;;;;13.72;68.48;154883.34;4975078;28;20832;-86
2023/05/27 03:27:06;;;;;;;6.50;3.80;;;;;;;13.66;68.50;154867.78;5019329;28;20499;-87
2023/05/27 03:29:36;;;;;;;6.63;3.77;;;;;;;13.61;68.90;154854.81;5016128;28;20465;-87
2023/05/27 03:32:03;;;;;;;9.37;5.47;;;;;;;13.61;69.01;154856.06;4982786;28;20502;-86
2023/05/27 03:34:31;;;;;;;8.70;3.97;;;;;;;13.59;69.06;154849.59;4993002;28;20550;-86
2023/05/27 03:36:59;;;;;;;8.07;4.40;;;;;;;13.53;69.18;154835.31;5015116;28;20915;-86
2023/05/27 03:39:42;;;;;;;8.80;4.20;;;;;;;13.51;69.34;154828.81;4993174;28;20552;-86
2023/05/27 03:42:09;;;;;;;7.80;3.63;;;;;;;13.48;69.76;154822.34;4998752;28;20450;-86
2023/05/27 03:44:35;;;;;;;10.00;4.20;;;;;;;13.45;70.15;154813.28;4983582;28;20467;-86
2023/05/27 03:47:03;;;;;;;8.17;4.67;;;;;;;13.39;70.27;154800.31;4974852;28;20486;-86
2023/05/27 03:49:29;;;;;;;8.20;4.97;;;;;;;13.36;70.71;154792.53;5021696;28;20487;-86
2023/05/27 03:51:57;;;;;;;9.90;5.23;;;;;;;13.32;70.67;154782.13;4995893;28;20449;-86
2023/05/27 03:54:24;;;;;;;9.57;4.07;;;;;;;13.27;71.13;154767.84;5017504;28;20549;-86
2023/05/27 03:56:52;;;;;;;7.73;3.83;;;;;;;13.24;71.45;154761.34;5002062;28;20544;-86
2023/05/27 03:59:18;;;;;;;8.17;3.97;;;;;;;13.26;71.40;154766.53;4994132;28;20461;-86
2023/05/27 04:01:46;;;;;;;13.23;4.10;;;;;;;13.24;71.29;154761.34;5009784;28;20553;-86
2023/05/27 04:04:13;;;;;;;8.00;5.27;;;;;;;13.23;71.44;154757.47;5002331;28;20453;-86
2023/05/27 04:06:41;;;;;;;9.00;4.37;;;;;;;13.20;71.75;154749.69;5004395;28;20464;-86
2023/05/27 04:09:08;;;;;;;9.30;4.07;;;;;;;13.21;71.83;154753.56;4975665;28;20924;-86
2023/05/27 04:11:36;;;;;;;5.47;3.50;;;;;;;13.24;71.71;154761.34;5001362;28;20474;-85
2023/05/27 04:14:04;;;;;;;8.33;3.90;;;;;;;13.23;71.89;154758.78;4991283;28;20474;-86
2023/05/27 04:16:33;;;;;;;8.10;4.20;;;;;;;13.23;71.83;154758.78;5009472;28;20455;-86
2023/05/27 04:19:00;;;;;;;7.83;3.47;;;;;;;13.28;72.00;154771.75;5006320;28;20947;-85
2023/05/27 04:21:26;;;;;;;6.93;4.50;;;;;;;13.28;71.95;154771.75;5003381;28;21167;-86
2023/05/27 04:23:55;;;;;;;5.03;3.70;;;;;;;13.32;72.04;154782.13;5007338;28;20449;-86
2023/05/27 04:26:24;;;;;;;7.07;3.33;;;;;;;13.38;72.05;154796.38;5001346;28;20440;-86
2023/05/27 04:28:55;;;;;;;7.17;4.10;;;;;;;13.49;71.36;154823.66;4981201;28;20539;-86
2023/05/27 04:31:23;;;;;;;6.50;4.17;;;;;;;13.54;71.29;154837.91;4980114;28;20463;-86
2023/05/27 04:33:55;;;;;;;7.50;4.20;;;;;;;13.65;71.20;154866.50;5018383;28;20508;-87
2023/05/27 04:36:24;;;;;;;9.47;4.07;;;;;;;13.74;71.00;154889.81;4984172;28;20441;-86
2023/05/27 04:39:12;;;;;;;6.03;4.60;;;;;;;13.88;70.13;154926.19;5000670;28;20538;-86
2023/05/27 04:41:42;;;;;;;5.40;3.70;;;;;;;13.93;70.06;154937.84;4985628;28;20888;-86
2023/05/27 04:44:14;;;;;;;9.10;3.80;;;;;;;14.01;70.10;154958.63;5037333;28;20667;-86
2023/05/27 04:46:44;;;;;;;8.90;4.20;;;;;;;14.07;69.62;154974.22;4988749;28;20441;-86
2023/05/27 04:49:11;;;;;;;6.33;3.60;;;;;;;14.17;69.80;154998.88;5018806;28;20452;-86
2023/05/27 04:51:38;;;;;;;8.73;4.10;;;;;;;14.26;69.36;155023.56;5024284;28;20439;-86
2023/05/27 04:54:05;;;;;;;5.90;4.00;;;;;;;14.35;68.91;155046.97;5009139;28;20575;-86
2023/05/27 04:56:33;;;;;;;6.67;4.00;;;;;;;14.43;68.25;155067.75;5001118;28;20452;-87
2023/05/27 04:59:00;;;;;;;7.97;4.20;;;;;;;14.48;68.00;155079.47;4992446;28;20442;-87
2023/05/27 05:01:48;;;;;;;9.30;4.13;;;;;;;14.46;68.26;155075.53;4971594;28;20506;-87
2023/05/27 05:04:18;;;;;;;8.87;4.77;;;;;;;14.48;68.10;155079.47;4987109;28;20466;-86
2023/05/27 05:06:50;;;;;;;7.73;3.87;;;;;;;14.45;68.44;155072.97;4988594;28;20534;-86
2023/05/27 05:09:17;;;;;;;9.57;4.40;;;;;;;14.52;67.95;155091.16;4970854;28;20456;-86
2023/05/27 05:11:45;;;;;;;11.27;3.97;;;;;;;14.61;67.72;155114.50;4987863;28;20806;-87
2023/05/27 05:14:12;;;;;;;5.57;3.60;;;;;;;14.72;67.40;155140.50;4971292;28;20492;-86
2023/05/27 05:16:40;;;;;;;7.57;4.50;;;;;;;14.77;66.84;155153.50;4987791;28;20436;-86
2023/05/27 05:19:08;;;;;;;6.67;3.83;;;;;;;14.80;67.34;155161.31;4977561;28;20812;-86
2023/05/27 05:21:37;;;;;;;7.73;4.27;;;;;;;14.88;66.65;155182.09;5006941;28;20450;-86
2023/05/27 05:24:06;;;;;;;10.03;5.07;;;;;;;14.91;67.11;155191.16;5009265;28;20457;-86
2023/05/27 05:26:33;;;;;;;7.60;4.00;;;;;;;14.97;66.97;155205.44;5001865;28;20442;-86
2023/05/27 05:29:01;;;;;;;8.87;3.97;;;;;;;15.13;65.96;155248.34;4993937;28;20450;-86
2023/05/27 05:31:28;;;;;;;9.70;4.40;;;;;;;15.17;65.46;155258.72;5010276;28;20458;-86
2023/05/27 05:33:57;;;;;;;8.00;4.03;;;;;;;15.24;64.98;155276.94;4972832;28;20831;-86
2023/05/27 05:36:25;;;;;;;7.63;4.20;;;;;;;15.20;65.33;155265.19;4971300;28;20445;-86
2023/05/27 05:38:56;;;;;;;6.03;4.37;;;;;;;15.31;64.74;155293.78;4989513;28;20473;-86
2023/05/27 05:41:24;;;;;;;6.57;4.17;;;;;;;15.45;64.56;155330.19;4987935;28;20975;-87
2023/05/27 05:43:50;;;;;;;8.33;3.97;;;;;;;15.54;64.56;155353.63;4988468;28;20483;-85
2023/05/27 05:46:17;;;;;;;14.07;5.37;;;;;;;15.68;63.14;155390.03;5003969;28;20437;-86
2023/05/27 05:48:45;;;;;;;9.83;4.33;;;;;;;15.75;63.65;155406.97;4999529;28;20536;-88
2023/05/27 05:51:16;;;;;;;7.10;4.03;;;;;;;15.64;63.20;155379.66;4970656;28;20444;-86
2023/05/27 05:53:46;;;;;;;8.07;4.33;;;;;;;15.64;63.50;155378.34;5003029;28;20481;-85
2023/05/27 05:56:12;;;;;;;9.33;5.20;;;;;;;15.76;63.43;155410.84;4974291;28;20487;-86
2023/05/27 05:58:39;;;;;;;6.40;4.00;;;;;;;15.87;62.75;155436.81;5007558;28;20436;-87
2023/05/27 06:01:07;;;;;;;6.60;4.13;;;;;;;15.91;62.91;155447.25;5011290;28;20898;-86
2023/05/27 06:03:38;;;;;;;9.90;4.60;;;;;;;16.01;61.77;155473.25;5010863;28;20436;-86
2023/05/27 06:06:07;;;;;;;9.73;4.43;;;;;;;15.99;62.55;155468.06;5009116;28;20468;-86
2023/05/27 06:08:43;;;;;;;10.50;4.43;;;;;;;16.06;62.09;155487.56;4974385;28;20826;-86
2023/05/27 06:11:15;;;;;;;9.07;4.90;;;;;;;16.20;62.66;155522.66;4973305;28;20488;-86
2023/05/27 06:13:43;;;;;;;9.33;4.50;;;;;;;16.39;61.31;155573.34;4986740;28;20487;-87
2023/05/27 06:16:12;;;;;;;6.10;4.40;;;;;;;16.36;61.55;155565.56;4986129;28;20472;-87
2023/05/27 06:18:39;;;;;;;9.53;4.10;;;;;;;16.47;61.21;155592.88;4986350;28;20541;-87
2023/05/27 06:21:06;;;;;;;10.87;4.43;;;;;;;16.37;61.14;155566.84;4989796;28;20448;-87
2023/05/27 06:23:54;;;;;;;7.83;4.43;;;;;;;16.46;61.37;155590.28;5010352;28;20459;-86
2023/05/27 06:26:22;;;;;;;6.73;4.30;;;;;;;16.56;61.35;155616.34;5010536;28;20908;-86
2023/05/27 06:28:50;;;;;;;4.67;4.20;;;;;;;16.74;60.93;155661.88;5022848;28;20991;-87
2023/05/27 06:31:17;;;;;;;6.13;4.03;;;;;;;16.83;59.54;155685.31;5010495;28;20800;-87
2023/05/27 06:33:44;;;;;;;6.80;4.13;;;;;;;16.80;60.09;155678.78;4992230;28;20572;-85
2023/05/27 06:36:11;;;;;;;7.60;4.00;;;;;;;16.79;59.84;155676.19;5000833;28;20452;-86
2023/05/27 06:38:40;;;;;;;12.03;4.20;;;;;;;16.91;60.14;155707.44;4992472;28;20440;-87
2023/05/27 06:41:08;;;;;;;7.33;4.10;;;;;;;16.93;59.20;155712.63;4992247;28;20453;-87
2023/05/27 06:43:36;;;;;;;7.27;4.40;;;;;;;16.85;59.67;155691.81;4989483;28;20446;-87
2023/05/27 06:46:14;;;;;;;8.77;4.60;;;;;;;16.96;59.99;155719.13;4992421;28;20446;-87
2023/05/27 06:49:02;;;;;;;7.20;4.13;;;;;;;17.22;59.06;155785.47;4993209;28;20424;-87
2023/05/27 06:51:30;;;;;;;7.03;4.60;;;;;;;17.20;59.26;155780.28;5021863;28;20453;-87
2023/05/27 06:53:58;;;;;;;10.53;5.03;;;;;;;17.33;58.82;155815.44;5007635;28;20920;-87
2023/05/27 06:56:44;;;;;;;13.90;5.30;;;;;;;17.52;58.74;155864.91;4997101;28;20445;-87
2023/05/27 06:59:29;;;;;;;9.40;3.90;;;;;;;17.30;58.17;155806.28;5022350;28;20551;-87
2023/05/27 07:01:57;;;;;;;9.00;4.43;;;;;;;17.39;58.95;155831.06;4990690;28;20442;-87
2023/05/27 07:04:23;;;;;;;8.10;5.07;;;;;;;17.61;58.27;155888.34;4989110;28;20460;-88
2023/05/27 07:06:54;;;;;;;7.07;4.50;;;;;;;17.74;57.45;155920.88;5022752;28;20462;-88
2023/05/27 07:09:21;;;;;;;8.57;5.40;;;;;;;17.73;57.12;155918.31;4988769;28;20461;-88
2023/05/27 07:11:49;;;;;;;9.20;4.63;;;;;;;17.84;57.16;155946.97;4989216;28;20438;-88
2023/05/27 07:14:35;;;;;;;7.10;4.40;;;;;;;17.85;57.34;155949.53;4990148;28;20512;-88
2023/05/27 07:17:03;;;;;;;7.33;4.60;;;;;;;18.25;56.75;156053.72;4971004;28;20992;-88
2023/05/27 07:19:29;;;;;;;7.53;4.50;;;;;;;18.12;56.20;156019.88;4966812;28;20453;-88
2023/05/27 07:22:00;;;;;;;8.23;5.30;;;;;;;18.16;55.56;156030.25;4988283;28;20442;-88
2023/05/27 07:24:28;;;;;;;7.13;4.87;;;;;;;18.32;56.06;156070.63;5004452;28;20460;-88
2023/05/27 07:26:57;;;;;;;8.30;4.80;;;;;;;18.72;54.71;156174.91;4997930;28;20448;-88
2023/05/27 07:29:26;;;;;;;6.10;5.03;;;;;;;19.03;54.53;156254.41;5004111;28;20492;-88
2023/05/27 07:31:53;;;;;;;10.93;4.70;;;;;;;19.19;53.54;156294.81;5009501;28;21035;-89
2023/05/27 07:34:24;;;;;;;7.73;4.70;;;;;;;19.18;53.97;156293.50;5010010;28;20491;-89
2023/05/27 07:36:50;;;;;;;6.80;4.97;;;;;;;18.87;53.67;156211.41;4989209;28;20441;-88
2023/05/27 07:39:17;;;;;;;7.53;4.80;;;;;;;18.98;53.86;156240.06;4989037;28;20445;-88
2023/05/27 07:41:44;;;;;;;7.30;4.90;;;;;;;19.12;53.99;156277.84;4988489;28;20601;-89
2023/05/27 07:44:12;;;;;;;7.83;5.03;;;;;;;19.26;53.33;156313.03;5001830;28;20444;-88
2023/05/27 07:46:38;;;;;;;8.40;5.30;;;;;;;19.31;53.69;156327.38;5008875;28;20441;-87
2023/05/27 07:49:06;;;;;;;9.27;5.33;;;;;;;19.58;52.89;156395.19;5008003;28;20499;-88
2023/05/27 07:51:37;;;;;;;10.93;5.30;;;;;;;19.63;52.88;156409.53;4988873;28;20779;-88
2023/05/27 07:54:04;;;;;;;8.40;4.80;;;;;;;19.70;52.80;156426.47;4992650;28;20476;-88
2023/05/27 07:56:30;;;;;;;5.80;4.40;;;;;;;19.91;52.64;156482.53;4977309;28;20446;-87
2023/05/27 07:58:57;;;;;;;7.20;5.10;;;;;;;20.17;51.52;156549.06;4965251;28;20471;-88
2023/05/27 08:01:30;;;;;;;9.77;5.47;;;;;;;20.07;50.75;156522.94;4972430;28;20473;-88
2023/05/27 08:03:57;;;;;;;5.40;4.77;;;;;;;19.93;51.18;156486.47;4987060;28;20558;-88
2023/05/27 08:06:36;;;;;;;12.43;5.93;;;;;;;19.87;52.55;156470.81;4989738;28;20418;-88
2023/05/27 08:09:12;;;;;;;9.70;4.80;;;;;;;20.22;52.89;156560.81;4989380;28;20449;-89
2023/05/27 08:12:01;;;;;;;9.73;5.60;;;;;;;20.31;50.81;156585.63;4987915;28;20446;-88
2023/05/27 08:14:46;;;;;;;7.17;4.90;;;;;;;20.21;51.19;156559.50;4984897;28;20849;-88
2023/05/27 08:17:34;;;;;;;6.27;5.23;;;;;;;20.42;50.70;156613.00;4967689;28;20447;-88
2023/05/27 08:20:17;;;;;;;6.60;4.87;;;;;;;20.00;50.93;156504.72;4985222;28;20451;-89
2023/05/27 08:22:55;;;;;;;6.23;4.73;;;;;;;20.29;51.47;156580.41;4969500;28;21024;-90
2023/05/27 08:25:47;;;;;;;10.23;6.10;;;;;;;20.37;50.88;156601.28;5013273;28;20454;-89
2023/05/27 08:28:22;;;;;;;7.43;5.07;;;;;;;20.51;50.28;156636.50;4987189;28;20574;-89
2023/05/27 08:31:12;;;;;;;6.60;5.20;;;;;;;20.33;51.75;156590.81;5003151;28;20515;-89
2023/05/27 08:33:48;;;;;;;8.23;5.77;;;;;;;20.41;51.19;156610.44;4992043;28;20465;-89
2023/05/27 08:36:15;;;;;;;6.13;5.50;;;;;;;20.49;51.28;156632.56;4975898;28;20809;-88
2023/05/27 08:38:45;;;;;;;8.90;5.93;;;;;;;20.87;49.99;156730.41;4991633;28;20449;-87
2023/05/27 08:41:17;;;;;;;10.53;5.40;;;;;;;21.15;49.75;156803.53;4991852;28;20777;-88
2023/05/27 08:43:45;;;;;;;8.60;5.30;;;;;;;20.94;49.80;156748.69;5007697;28;20968;-87
2023/05/27 08:46:13;;;;;;;7.30;4.97;;;;;;;20.98;49.84;156759.13;4992088;28;20492;-88
2023/05/27 08:48:41;;;;;;;7.73;5.60;;;;;;;20.85;49.75;156723.91;4991523;28;20451;-88
2023/05/27 08:51:10;;;;;;;6.90;5.07;;;;;;;21.22;49.67;156821.84;4978767;28;20974;-88
2023/05/27 08:53:38;;;;;;;10.37;5.27;;;;;;;21.14;49.16;156800.94;5007512;28;20457;-88
2023/05/27 08:56:07;;;;;;;6.70;5.20;;;;;;;21.41;49.15;156868.81;5009667;28;20543;-88
2023/05/27 08:58:35;;;;;;;8.30;5.87;;;;;;;21.35;48.60;156854.44;4991287;28;20852;-88
2023/05/27 09:01:02;;;;;;;5.83;5.23;;;;;;;21.23;49.04;156823.16;4993600;28;20825;-88
2023/05/27 09:03:29;;;;;;;6.43;5.07;;;;;;;20.78;49.75;156705.66;4991368;28;20464;-88
2023/05/27 09:05:57;;;;;;;6.97;5.60;;;;;;;20.75;50.36;156697.81;4993360;28;20442;-88
2023/05/27 09:08:25;;;;;;;9.57;6.27;;;;;;;20.97;50.01;156755.25;4991772;28;20437;-88
2023/05/27 09:10:51;;;;;;;6.00;5.07;;;;;;;20.78;50.03;156706.97;5008413;28;20492;-88
2023/05/27 09:13:27;;;;;;;8.23;5.60;;;;;;;20.87;51.07;156729.09;5011799;28;20487;-89
2023/05/27 09:15:59;;;;;;;7.00;5.73;;;;;;;21.26;50.42;156830.94;4992709;28;20980;-88
2023/05/27 09:18:26;;;;;;;6.37;5.63;;;;;;;21.42;49.84;156872.72;5007335;28;20437;-89
2023/05/27 09:20:54;;;;;;;6.60;5.87;;;;;;;21.74;48.39;156956.25;5025514;28;20998;-89
2023/05/27 09:23:21;;;;;;;6.03;5.43;;;;;;;21.38;49.77;156862.28;5007220;28;20442;-88
2023/05/27 09:25:49;;;;;;;7.20;5.40;;;;;;;20.98;50.50;156759.13;5007693;28;20881;-88
2023/05/27 09:28:21;;;;;;;6.97;6.27;;;;;;;21.18;50.59;156810.09;4989577;28;20892;-88
2023/05/27 09:30:52;;;;;;;9.53;5.83;;;;;;;21.32;49.75;156846.63;4991152;28;20476;-88
2023/05/27 09:33:23;;;;;;;6.80;5.20;;;;;;;21.22;50.41;156820.53;5012156;28;20495;-89
2023/05/27 09:35:50;;;;;;;7.80;5.90;;;;;;;21.32;49.90;156846.63;5011968;28;20582;-89
2023/05/27 09:38:17;;;;;;;7.73;6.00;;;;;;;21.43;49.84;156875.34;5023478;28;20445;-89
2023/05/27 09:40:44;;;;;;;8.87;5.47;;;;;;;21.24;50.35;156827.03;4990461;28;20984;-88
2023/05/27 09:43:16;;;;;;;7.00;5.83;;;;;;;21.07;51.22;156782.69;5007288;28;20446;-88
2023/05/27 09:45:43;;;;;;;7.53;6.73;;;;;;;21.06;50.53;156780.06;4974584;28;20865;-82
2023/05/27 09:48:10;;;;;;;9.43;6.70;;;;;;;21.33;50.40;156849.25;5024241;28;20808;-89
2023/05/27 09:50:38;;;;;;;9.90;5.90;;;;;;;21.54;50.65;156904.06;5007545;28;20456;-89
2023/05/27 09:53:05;;;;;;;8.93;6.80;;;;;;;21.66;49.97;156935.38;5026588;28;20441;-89
2023/05/27 09:55:31;;;;;;;10.73;6.67;;;;;;;21.45;49.43;156880.53;5005534;28;20918;-88
2023/05/27 09:57:58;;;;;;;9.20;6.00;;;;;;;21.09;50.98;156786.59;5005367;28;21028;-89
2023/05/27 10:00:27;;;;;;;9.93;7.00;;;;;;;20.82;50.62;156716.06;5023047;28;20449;-88
2023/05/27 10:02:57;;;;;;;7.73;5.73;;;;;;;20.73;52.00;156692.63;5008777;28;20477;-89
2023/05/27 10:05:24;;;;;;;10.87;6.50;;;;;;;20.80;51.79;156710.84;5023138;28;20448;-89
2023/05/27 10:07:50;;;;;;;7.47;5.63;;;;;;;21.22;50.48;156820.53;5007799;28;20483;-89
2023/05/27 10:10:18;;;;;;;8.13;5.97;;;;;;;21.34;50.79;156850.56;5011624;28;21022;-89
2023/05/27 10:12:46;;;;;;;7.60;5.90;;;;;;;21.46;51.29;156883.19;5013039;28;20445;-89
2023/05/27 10:15:22;;;;;;;9.43;7.10;;;;;;;21.34;49.92;156851.81;5011303;28;20538;-88
2023/05/27 10:17:53;;;;;;;9.50;6.50;;;;;;;21.37;48.74;156859.66;5004762;28;20402;-89
2023/05/27 10:20:28;;;;;;;7.87;6.60;;;;;;;21.41;50.65;156870.13;5018391;28;20441;-89
2023/05/27 10:22:56;;;;;;;7.60;6.80;;;;;;;21.36;49.01;156857.09;4993245;28;20445;-89
2023/05/27 10:25:23;;;;;;;9.27;6.40;;;;;;;21.09;49.52;156786.59;4986393;28;20442;-89
2023/05/27 10:27:50;;;;;;;11.23;6.83;;;;;;;21.06;50.44;156780.06;4995378;28;21028;-89
2023/05/27 10:30:17;;;;;;;8.07;6.20;;;;;;;21.32;51.16;156845.31;4989322;28;20800;-89
2023/05/27 10:32:45;;;;;;;6.67;5.97;;;;;;;21.50;48.46;156892.34;5005978;28;20434;-88
2023/05/27 10:35:13;;;;;;;6.67;6.03;;;;;;;21.28;49.48;156836.19;5010042;28;20838;-88
2023/05/27 10:37:42;;;;;;;8.60;7.50;;;;;;;21.38;49.43;156862.28;5005596;28;20442;-87
2023/05/27 10:40:09;;;;;;;7.33;6.60;;;;;;;21.30;48.94;156840.09;5021969;28;20861;-86
2023/05/27 10:42:36;;;;;;;7.20;6.17;;;;;;;21.17;48.87;156807.47;5006500;28;20859;-87
2023/05/27 10:45:07;;;;;;;6.67;6.03;;;;;;;21.21;48.66;156819.22;4991551;28;20445;-87
2023/05/27 10:47:36;;;;;;;10.20;6.93;;;;;;;21.24;49.83;156825.72;5022306;28;20445;-87
2023/05/27 10:50:10;;;;;;;7.90;6.57;;;;;;;21.25;48.58;156828.34;5008122;28;20477;-86
2023/05/27 10:52:39;;;;;;;8.90;6.50;;;;;;;21.24;48.66;156825.72;4988815;28;20433;-87
2023/05/27 10:55:06;;;;;;;10.17;6.50;;;;;;;21.26;49.44;156829.66;4991651;28;20482;-87
2023/05/27 10:57:33;;;;;;;6.90;6.20;;;;;;;21.57;48.90;156911.91;5015370;28;20440;-87
2023/05/27 11:00:03;;;;;;;8.47;6.60;;;;;;;21.74;49.20;156956.25;5008879;28;20448;-88
2023/05/27 11:02:32;;;;;;;7.40;6.50;;;;;;;21.85;48.65;156985.00;4989388;28;20433;-87
2023/05/27 11:04:58;;;;;;;7.70;6.33;;;;;;;21.92;48.36;157002.03;5007098;28;20450;-87
2023/05/27 11:07:25;;;;;;;8.87;5.93;;;;;;;21.92;48.47;157002.03;5010184;28;20437;-87
2023/05/27 11:09:54;;;;;;;9.23;6.97;;;;;;;21.85;47.12;156985.00;4989560;28;20592;-87
2023/05/27 11:12:22;;;;;;;8.00;6.37;;;;;;;21.87;48.24;156988.94;4986435;28;20881;-87
2023/05/27 11:14:50;;;;;;;8.40;6.30;;;;;;;21.96;47.09;157011.16;5002458;28;20827;-88
2023/05/27 11:17:18;;;;;;;6.80;6.20;;;;;;;22.00;46.17;157022.88;4998615;28;20866;-88
2023/05/27 11:19:45;;;;;;;7.80;7.10;;;;;;;21.92;46.02;157000.72;4988441;28;20834;-87
2023/05/27 11:22:13;;;;;;;8.57;6.43;;;;;;;21.89;47.75;156992.88;4985711;28;20533;-88
2023/05/27 11:24:39;;;;;;;7.30;6.63;;;;;;;22.09;46.14;157045.09;4968515;28;20822;-88
2023/05/27 11:27:11;;;;;;;8.80;6.17;;;;;;;22.00;46.27;157022.88;4973484;28;20525;-87
2023/05/27 11:29:37;;;;;;;9.00;7.23;;;;;;;21.88;46.18;156991.56;5021482;28;20840;-87
2023/05/27 11:32:05;;;;;;;7.87;6.30;;;;;;;21.84;45.96;156982.38;5009198;28;20456;-88
2023/05/27 11:34:34;;;;;;;7.57;6.77;;;;;;;21.94;47.14;157005.94;5009067;28;21030;-88